sensor_id;sensor_type;location;lat;lon;timestamp;P1;durP1;ratioP1;P2;durP2;ratioP2
14369;SDS011;7268;50.792;0.252;2022-11-20T00:00:21;2.63;;;0.75;;
14369;SDS011;7268;50.792;0.252;2022-11-20T00:02:48;9.38;;;1.08;;
14369;SDS011;7268;50.792;0.252;2022-11-20T00:05:16;8.73;;;1.85;;
14369;SDS011;7268;50.792;0.252;2022-11-20T00:07:43;8.88;;;1.60;;
14369;SDS011;7268;50.792;0.252;2022-11-20T00:10:10;7.35;;;1.10;;
14369;SDS011;7268;50.792;0.252;2022-11-20T00:12:37;15.98;;;3.05;;
14369;SDS011;7268;50.792;0.252;2022-11-20T00:15:05;12.73;;;2.75;;
14369;SDS011;7268;50.792;0.252;2022-11-20T00:17:32;14.02;;;3.63;;
14369;SDS011;7268;50.792;0.252;2022-11-20T00:20:00;14.05;;;3.92;;
14369;SDS011;7268;50.792;0.252;2022-11-20T00:22:27;15.68;;;4.82;;
14369;SDS011;7268;50.792;0.252;2022-11-20T00:24:54;15.30;;;4.35;;
14369;SDS011;7268;50.792;0.252;2022-11-20T00:27:23;12.90;;;3.33;;
14369;SDS011;7268;50.792;0.252;2022-11-20T00:29:50;14.20;;;5.10;;
14369;SDS011;7268;50.792;0.252;2022-11-20T00:32:17;10.50;;;3.75;;
14369;SDS011;7268;50.792;0.252;2022-11-20T00:34:45;15.32;;;3.05;;
14369;SDS011;7268;50.792;0.252;2022-11-20T00:37:17;17.40;;;4.20;;
14369;SDS011;7268;50.792;0.252;2022-11-20T00:39:44;7.72;;;2.95;;
14369;SDS011;7268;50.792;0.252;2022-11-20T00:42:11;11.35;;;3.45;;
14369;SDS011;7268;50.792;0.252;2022-11-20T00:44:38;11.40;;;3.45;;
14369;SDS011;7268;50.792;0.252;2022-11-20T00:47:06;17.08;;;3.60;;
14369;SDS011;7268;50.792;0.252;2022-11-20T00:49:33;8.25;;;2.63;;
14369;SDS011;7268;50.792;0.252;2022-11-20T00:52:00;13.63;;;3.53;;
14369;SDS011;7268;50.792;0.252;2022-11-20T00:54:27;16.02;;;3.65;;
14369;SDS011;7268;50.792;0.252;2022-11-20T00:56:55;18.10;;;4.80;;
14369;SDS011;7268;50.792;0.252;2022-11-20T00:59:22;9.63;;;3.33;;
14369;SDS011;7268;50.792;0.252;2022-11-20T01:01:49;15.77;;;3.78;;
14369;SDS011;7268;50.792;0.252;2022-11-20T01:04:16;11.80;;;3.33;;
14369;SDS011;7268;50.792;0.252;2022-11-20T01:06:43;11.63;;;3.35;;
14369;SDS011;7268;50.792;0.252;2022-11-20T01:09:12;17.33;;;4.88;;
14369;SDS011;7268;50.792;0.252;2022-11-20T01:11:41;15.52;;;4.97;;
14369;SDS011;7268;50.792;0.252;2022-11-20T01:14:18;17.30;;;5.43;;
14369;SDS011;7268;50.792;0.252;2022-11-20T01:16:47;18.83;;;5.35;;
14369;SDS011;7268;50.792;0.252;2022-11-20T01:19:23;17.77;;;6.53;;
14369;SDS011;7268;50.792;0.252;2022-11-20T01:21:52;11.77;;;4.72;;
14369;SDS011;7268;50.792;0.252;2022-11-20T01:24:20;17.40;;;5.10;;
14369;SDS011;7268;50.792;0.252;2022-11-20T01:26:48;16.13;;;5.65;;
14369;SDS011;7268;50.792;0.252;2022-11-20T01:29:16;18.33;;;5.68;;
14369;SDS011;7268;50.792;0.252;2022-11-20T01:31:45;17.23;;;6.13;;
14369;SDS011;7268;50.792;0.252;2022-11-20T01:34:13;15.48;;;5.72;;
14369;SDS011;7268;50.792;0.252;2022-11-20T01:36:41;19.38;;;5.88;;
14369;SDS011;7268;50.792;0.252;2022-11-20T01:41:39;13.32;;;5.40;;
14369;SDS011;7268;50.792;0.252;2022-11-20T01:47:11;14.05;;;4.22;;
14369;SDS011;7268;50.792;0.252;2022-11-20T01:49:42;11.98;;;4.13;;
14369;SDS011;7268;50.792;0.252;2022-11-20T01:55:19;13.63;;;3.85;;
14369;SDS011;7268;50.792;0.252;2022-11-20T01:57:47;17.90;;;4.80;;
14369;SDS011;7268;50.792;0.252;2022-11-20T02:00:16;14.68;;;3.65;;
14369;SDS011;7268;50.792;0.252;2022-11-20T02:02:45;15.45;;;4.65;;
14369;SDS011;7268;50.792;0.252;2022-11-20T02:05:23;18.35;;;5.47;;
14369;SDS011;7268;50.792;0.252;2022-11-20T02:07:50;15.40;;;3.55;;
14369;SDS011;7268;50.792;0.252;2022-11-20T02:10:19;14.15;;;3.40;;
14369;SDS011;7268;50.792;0.252;2022-11-20T02:12:47;8.70;;;3.78;;
14369;SDS011;7268;50.792;0.252;2022-11-20T02:15:33;17.13;;;3.38;;
14369;SDS011;7268;50.792;0.252;2022-11-20T02:18:00;10.68;;;3.10;;
14369;SDS011;7268;50.792;0.252;2022-11-20T02:20:28;11.63;;;2.67;;
14369;SDS011;7268;50.792;0.252;2022-11-20T02:25:48;10.68;;;2.08;;
14369;SDS011;7268;50.792;0.252;2022-11-20T02:28:16;12.75;;;2.25;;
14369;SDS011;7268;50.792;0.252;2022-11-20T02:30:44;5.07;;;0.82;;
14369;SDS011;7268;50.792;0.252;2022-11-20T02:33:12;4.55;;;1.13;;
14369;SDS011;7268;50.792;0.252;2022-11-20T02:35:41;0.82;;;0.20;;
14369;SDS011;7268;50.792;0.252;2022-11-20T02:38:13;0.45;;;0.20;;
14369;SDS011;7268;50.792;0.252;2022-11-20T02:40:41;3.50;;;0.35;;
14369;SDS011;7268;50.792;0.252;2022-11-20T02:43:08;3.47;;;0.20;;
14369;SDS011;7268;50.792;0.252;2022-11-20T02:45:35;7.60;;;0.38;;
14369;SDS011;7268;50.792;0.252;2022-11-20T02:48:03;1.08;;;0.30;;
14369;SDS011;7268;50.792;0.252;2022-11-20T02:50:30;0.88;;;0.10;;
14369;SDS011;7268;50.792;0.252;2022-11-20T02:52:57;1.60;;;0.10;;
14369;SDS011;7268;50.792;0.252;2022-11-20T02:55:24;5.63;;;0.25;;
14369;SDS011;7268;50.792;0.252;2022-11-20T02:57:52;3.45;;;0.98;;
14369;SDS011;7268;50.792;0.252;2022-11-20T03:00:19;2.80;;;0.20;;
14369;SDS011;7268;50.792;0.252;2022-11-20T03:02:46;1.95;;;0.10;;
14369;SDS011;7268;50.792;0.252;2022-11-20T03:05:13;4.60;;;0.20;;
14369;SDS011;7268;50.792;0.252;2022-11-20T03:07:40;0.68;;;0.20;;
14369;SDS011;7268;50.792;0.252;2022-11-20T03:10:08;2.38;;;0.20;;
14369;SDS011;7268;50.792;0.252;2022-11-20T03:12:35;3.95;;;0.32;;
14369;SDS011;7268;50.792;0.252;2022-11-20T03:15:02;7.40;;;0.52;;
14369;SDS011;7268;50.792;0.252;2022-11-20T03:17:29;2.90;;;0.45;;
14369;SDS011;7268;50.792;0.252;2022-11-20T03:19:57;3.70;;;0.28;;
14369;SDS011;7268;50.792;0.252;2022-11-20T03:22:24;4.15;;;0.25;;
14369;SDS011;7268;50.792;0.252;2022-11-20T03:24:51;4.18;;;0.40;;
14369;SDS011;7268;50.792;0.252;2022-11-20T03:27:18;2.75;;;0.20;;
14369;SDS011;7268;50.792;0.252;2022-11-20T03:29:45;1.48;;;0.20;;
14369;SDS011;7268;50.792;0.252;2022-11-20T03:32:13;9.43;;;0.30;;
14369;SDS011;7268;50.792;0.252;2022-11-20T03:34:40;3.05;;;0.32;;
14369;SDS011;7268;50.792;0.252;2022-11-20T03:37:07;2.03;;;0.10;;
14369;SDS011;7268;50.792;0.252;2022-11-20T03:39:34;3.80;;;0.40;;
14369;SDS011;7268;50.792;0.252;2022-11-20T03:42:01;6.03;;;0.30;;
14369;SDS011;7268;50.792;0.252;2022-11-20T03:44:28;3.75;;;0.50;;
14369;SDS011;7268;50.792;0.252;2022-11-20T03:46:56;6.15;;;0.45;;
14369;SDS011;7268;50.792;0.252;2022-11-20T03:49:23;8.13;;;0.35;;
14369;SDS011;7268;50.792;0.252;2022-11-20T03:51:50;9.63;;;0.40;;
14369;SDS011;7268;50.792;0.252;2022-11-20T03:54:17;6.07;;;0.57;;
14369;SDS011;7268;50.792;0.252;2022-11-20T03:56:44;3.47;;;0.40;;
14369;SDS011;7268;50.792;0.252;2022-11-20T03:59:11;7.57;;;0.45;;
14369;SDS011;7268;50.792;0.252;2022-11-20T04:01:39;11.38;;;0.55;;
14369;SDS011;7268;50.792;0.252;2022-11-20T04:04:13;6.10;;;0.47;;
14369;SDS011;7268;50.792;0.252;2022-11-20T04:06:40;2.30;;;0.20;;
14369;SDS011;7268;50.792;0.252;2022-11-20T04:09:07;3.60;;;0.50;;
14369;SDS011;7268;50.792;0.252;2022-11-20T04:11:36;3.35;;;0.50;;
14369;SDS011;7268;50.792;0.252;2022-11-20T04:14:04;4.32;;;0.60;;
14369;SDS011;7268;50.792;0.252;2022-11-20T04:16:33;7.50;;;0.50;;
14369;SDS011;7268;50.792;0.252;2022-11-20T04:19:02;5.82;;;0.50;;
14369;SDS011;7268;50.792;0.252;2022-11-20T04:21:29;4.53;;;0.50;;
14369;SDS011;7268;50.792;0.252;2022-11-20T04:23:56;3.85;;;0.30;;
14369;SDS011;7268;50.792;0.252;2022-11-20T04:26:24;7.43;;;0.30;;
14369;SDS011;7268;50.792;0.252;2022-11-20T04:28:52;9.68;;;0.65;;
14369;SDS011;7268;50.792;0.252;2022-11-20T04:31:20;7.68;;;0.38;;
14369;SDS011;7268;50.792;0.252;2022-11-20T04:33:48;5.07;;;0.47;;
14369;SDS011;7268;50.792;0.252;2022-11-20T04:36:16;12.32;;;0.73;;
14369;SDS011;7268;50.792;0.252;2022-11-20T04:38:44;9.38;;;0.40;;
14369;SDS011;7268;50.792;0.252;2022-11-20T04:41:15;6.43;;;0.57;;
14369;SDS011;7268;50.792;0.252;2022-11-20T04:43:47;3.40;;;0.27;;
14369;SDS011;7268;50.792;0.252;2022-11-20T04:46:17;4.35;;;0.40;;
14369;SDS011;7268;50.792;0.252;2022-11-20T04:48:45;10.57;;;0.38;;
14369;SDS011;7268;50.792;0.252;2022-11-20T04:51:12;10.90;;;0.40;;
14369;SDS011;7268;50.792;0.252;2022-11-20T04:53:40;5.90;;;0.40;;
14369;SDS011;7268;50.792;0.252;2022-11-20T04:56:08;7.53;;;0.57;;
14369;SDS011;7268;50.792;0.252;2022-11-20T04:58:37;10.05;;;0.40;;
14369;SDS011;7268;50.792;0.252;2022-11-20T05:03:31;4.07;;;0.60;;
14369;SDS011;7268;50.792;0.252;2022-11-20T05:06:05;2.88;;;0.30;;
14369;SDS011;7268;50.792;0.252;2022-11-20T05:08:32;4.57;;;0.40;;
14369;SDS011;7268;50.792;0.252;2022-11-20T05:11:10;6.03;;;0.45;;
14369;SDS011;7268;50.792;0.252;2022-11-20T05:13:37;4.47;;;0.40;;
14369;SDS011;7268;50.792;0.252;2022-11-20T05:18:32;5.57;;;0.32;;
14369;SDS011;7268;50.792;0.252;2022-11-20T05:21:00;3.13;;;0.38;;
14369;SDS011;7268;50.792;0.252;2022-11-20T05:23:27;5.75;;;0.45;;
14369;SDS011;7268;50.792;0.252;2022-11-20T05:25:56;3.58;;;0.50;;
14369;SDS011;7268;50.792;0.252;2022-11-20T05:28:25;4.32;;;0.77;;
14369;SDS011;7268;50.792;0.252;2022-11-20T05:30:52;5.30;;;0.43;;
14369;SDS011;7268;50.792;0.252;2022-11-20T05:33:20;3.17;;;0.43;;
14369;SDS011;7268;50.792;0.252;2022-11-20T05:35:47;10.98;;;1.00;;
14369;SDS011;7268;50.792;0.252;2022-11-20T05:38:14;10.27;;;0.40;;
14369;SDS011;7268;50.792;0.252;2022-11-20T05:40:42;6.72;;;0.40;;
14369;SDS011;7268;50.792;0.252;2022-11-20T05:43:09;4.78;;;0.40;;
14369;SDS011;7268;50.792;0.252;2022-11-20T05:45:36;6.85;;;0.57;;
14369;SDS011;7268;50.792;0.252;2022-11-20T05:48:03;9.20;;;0.60;;
14369;SDS011;7268;50.792;0.252;2022-11-20T05:50:31;5.85;;;0.60;;
14369;SDS011;7268;50.792;0.252;2022-11-20T05:52:58;4.45;;;0.40;;
14369;SDS011;7268;50.792;0.252;2022-11-20T05:55:26;8.18;;;0.65;;
14369;SDS011;7268;50.792;0.252;2022-11-20T05:57:54;9.30;;;0.50;;
14369;SDS011;7268;50.792;0.252;2022-11-20T06:00:21;3.08;;;0.45;;
14369;SDS011;7268;50.792;0.252;2022-11-20T06:02:48;3.05;;;0.20;;
14369;SDS011;7268;50.792;0.252;2022-11-20T06:05:16;13.25;;;0.43;;
14369;SDS011;7268;50.792;0.252;2022-11-20T06:07:43;9.05;;;0.70;;
14369;SDS011;7268;50.792;0.252;2022-11-20T06:10:10;5.97;;;0.47;;
14369;SDS011;7268;50.792;0.252;2022-11-20T06:12:38;6.28;;;0.30;;
14369;SDS011;7268;50.792;0.252;2022-11-20T06:15:05;4.72;;;0.38;;
14369;SDS011;7268;50.792;0.252;2022-11-20T06:17:33;5.85;;;0.30;;
14369;SDS011;7268;50.792;0.252;2022-11-20T06:20:00;9.63;;;0.40;;
14369;SDS011;7268;50.792;0.252;2022-11-20T06:22:27;8.52;;;0.30;;
14369;SDS011;7268;50.792;0.252;2022-11-20T06:24:54;5.18;;;0.35;;
14369;SDS011;7268;50.792;0.252;2022-11-20T06:27:22;1.88;;;0.40;;
14369;SDS011;7268;50.792;0.252;2022-11-20T06:29:49;10.55;;;0.40;;
14369;SDS011;7268;50.792;0.252;2022-11-20T06:32:16;6.40;;;0.40;;
14369;SDS011;7268;50.792;0.252;2022-11-20T06:34:43;4.28;;;0.47;;
14369;SDS011;7268;50.792;0.252;2022-11-20T06:37:10;2.28;;;0.20;;
14369;SDS011;7268;50.792;0.252;2022-11-20T06:39:37;3.58;;;0.40;;
14369;SDS011;7268;50.792;0.252;2022-11-20T06:42:05;3.65;;;0.45;;
14369;SDS011;7268;50.792;0.252;2022-11-20T06:44:32;1.63;;;0.30;;
14369;SDS011;7268;50.792;0.252;2022-11-20T06:46:59;3.35;;;0.50;;
14369;SDS011;7268;50.792;0.252;2022-11-20T06:49:27;3.22;;;0.28;;
14369;SDS011;7268;50.792;0.252;2022-11-20T06:52:04;0.68;;;0.20;;
14369;SDS011;7268;50.792;0.252;2022-11-20T06:54:31;3.47;;;0.17;;
14369;SDS011;7268;50.792;0.252;2022-11-20T06:56:58;7.57;;;0.30;;
14369;SDS011;7268;50.792;0.252;2022-11-20T06:59:26;6.82;;;0.47;;
14369;SDS011;7268;50.792;0.252;2022-11-20T07:01:53;3.63;;;0.30;;
14369;SDS011;7268;50.792;0.252;2022-11-20T07:04:20;2.20;;;0.25;;
14369;SDS011;7268;50.792;0.252;2022-11-20T07:06:48;1.77;;;0.13;;
14369;SDS011;7268;50.792;0.252;2022-11-20T07:09:15;1.70;;;0.22;;
14369;SDS011;7268;50.792;0.252;2022-11-20T07:11:42;3.22;;;0.22;;
14369;SDS011;7268;50.792;0.252;2022-11-20T07:14:09;2.95;;;0.30;;
14369;SDS011;7268;50.792;0.252;2022-11-20T07:16:36;4.00;;;0.20;;
14369;SDS011;7268;50.792;0.252;2022-11-20T07:19:04;4.85;;;0.30;;
14369;SDS011;7268;50.792;0.252;2022-11-20T07:21:31;4.72;;;0.50;;
14369;SDS011;7268;50.792;0.252;2022-11-20T07:23:58;5.50;;;0.40;;
14369;SDS011;7268;50.792;0.252;2022-11-20T07:26:25;3.70;;;0.50;;
14369;SDS011;7268;50.792;0.252;2022-11-20T07:28:52;6.60;;;0.88;;
14369;SDS011;7268;50.792;0.252;2022-11-20T07:31:20;4.10;;;0.40;;
14369;SDS011;7268;50.792;0.252;2022-11-20T07:33:47;8.10;;;0.68;;
14369;SDS011;7268;50.792;0.252;2022-11-20T07:36:14;9.93;;;0.80;;
14369;SDS011;7268;50.792;0.252;2022-11-20T07:38:41;9.27;;;0.60;;
14369;SDS011;7268;50.792;0.252;2022-11-20T07:41:09;4.88;;;0.63;;
14369;SDS011;7268;50.792;0.252;2022-11-20T07:43:36;7.15;;;0.70;;
14369;SDS011;7268;50.792;0.252;2022-11-20T07:46:06;10.45;;;0.80;;
14369;SDS011;7268;50.792;0.252;2022-11-20T07:48:33;8.75;;;1.38;;
14369;SDS011;7268;50.792;0.252;2022-11-20T07:51:00;6.07;;;0.73;;
14369;SDS011;7268;50.792;0.252;2022-11-20T07:53:28;3.97;;;0.40;;
14369;SDS011;7268;50.792;0.252;2022-11-20T07:55:58;3.88;;;0.82;;
14369;SDS011;7268;50.792;0.252;2022-11-20T07:58:25;4.82;;;0.50;;
14369;SDS011;7268;50.792;0.252;2022-11-20T08:00:53;7.45;;;0.70;;
14369;SDS011;7268;50.792;0.252;2022-11-20T08:03:20;8.35;;;0.88;;
14369;SDS011;7268;50.792;0.252;2022-11-20T08:05:51;6.00;;;0.50;;
14369;SDS011;7268;50.792;0.252;2022-11-20T08:08:18;14.18;;;0.80;;
14369;SDS011;7268;50.792;0.252;2022-11-20T08:10:47;9.10;;;0.60;;
14369;SDS011;7268;50.792;0.252;2022-11-20T08:13:14;9.93;;;0.60;;
14369;SDS011;7268;50.792;0.252;2022-11-20T08:16:00;8.52;;;0.77;;
14369;SDS011;7268;50.792;0.252;2022-11-20T08:18:27;16.20;;;0.60;;
14369;SDS011;7268;50.792;0.252;2022-11-20T08:20:57;6.30;;;0.45;;
14369;SDS011;7268;50.792;0.252;2022-11-20T08:23:25;15.07;;;0.70;;
14369;SDS011;7268;50.792;0.252;2022-11-20T08:25:52;8.75;;;0.90;;
14369;SDS011;7268;50.792;0.252;2022-11-20T08:28:19;19.30;;;1.35;;
14369;SDS011;7268;50.792;0.252;2022-11-20T08:30:48;4.22;;;0.57;;
14369;SDS011;7268;50.792;0.252;2022-11-20T08:33:16;6.00;;;0.73;;
14369;SDS011;7268;50.792;0.252;2022-11-20T08:35:44;9.23;;;0.85;;
14369;SDS011;7268;50.792;0.252;2022-11-20T08:38:11;6.72;;;0.45;;
14369;SDS011;7268;50.792;0.252;2022-11-20T08:40:38;14.07;;;0.95;;
14369;SDS011;7268;50.792;0.252;2022-11-20T08:43:05;7.50;;;0.70;;
14369;SDS011;7268;50.792;0.252;2022-11-20T08:45:33;12.90;;;0.55;;
14369;SDS011;7268;50.792;0.252;2022-11-20T08:48:01;5.65;;;0.40;;
14369;SDS011;7268;50.792;0.252;2022-11-20T08:50:29;3.95;;;0.20;;
14369;SDS011;7268;50.792;0.252;2022-11-20T08:53:05;3.13;;;0.10;;
14369;SDS011;7268;50.792;0.252;2022-11-20T08:55:32;3.15;;;0.82;;
14369;SDS011;7268;50.792;0.252;2022-11-20T08:58:05;2.25;;;0.40;;
14369;SDS011;7268;50.792;0.252;2022-11-20T09:00:32;0.03;;;0.00;;
14369;SDS011;7268;50.792;0.252;2022-11-20T09:03:00;0.85;;;0.10;;
14369;SDS011;7268;50.792;0.252;2022-11-20T09:05:27;0.20;;;0.10;;
14369;SDS011;7268;50.792;0.252;2022-11-20T09:07:58;0.57;;;0.00;;
14369;SDS011;7268;50.792;0.252;2022-11-20T09:10:26;0.80;;;0.10;;
14369;SDS011;7268;50.792;0.252;2022-11-20T09:12:54;0.13;;;0.00;;
14369;SDS011;7268;50.792;0.252;2022-11-20T09:15:22;2.35;;;0.05;;
14369;SDS011;7268;50.792;0.252;2022-11-20T09:17:53;0.43;;;0.35;;
14369;SDS011;7268;50.792;0.252;2022-11-20T09:20:20;1.25;;;0.15;;
14369;SDS011;7268;50.792;0.252;2022-11-20T09:22:47;2.15;;;0.10;;
14369;SDS011;7268;50.792;0.252;2022-11-20T09:25:15;1.15;;;0.20;;
14369;SDS011;7268;50.792;0.252;2022-11-20T09:27:42;2.05;;;0.30;;
14369;SDS011;7268;50.792;0.252;2022-11-20T09:30:12;2.35;;;0.10;;
14369;SDS011;7268;50.792;0.252;2022-11-20T09:32:40;3.38;;;0.30;;
14369;SDS011;7268;50.792;0.252;2022-11-20T09:35:08;3.20;;;0.40;;
14369;SDS011;7268;50.792;0.252;2022-11-20T09:37:35;5.13;;;0.30;;
14369;SDS011;7268;50.792;0.252;2022-11-20T09:40:02;2.03;;;0.25;;
14369;SDS011;7268;50.792;0.252;2022-11-20T09:50:28;4.28;;;0.45;;
14369;SDS011;7268;50.792;0.252;2022-11-20T09:55:29;9.27;;;0.70;;
14369;SDS011;7268;50.792;0.252;2022-11-20T09:57:57;4.78;;;0.50;;
14369;SDS011;7268;50.792;0.252;2022-11-20T10:00:26;7.15;;;0.55;;
14369;SDS011;7268;50.792;0.252;2022-11-20T10:05:51;13.45;;;0.85;;
14369;SDS011;7268;50.792;0.252;2022-11-20T10:08:21;8.95;;;0.80;;
14369;SDS011;7268;50.792;0.252;2022-11-20T10:11:01;6.80;;;0.52;;
14369;SDS011;7268;50.792;0.252;2022-11-20T10:16:20;10.20;;;0.60;;
14369;SDS011;7268;50.792;0.252;2022-11-20T10:24:07;5.72;;;0.57;;
14369;SDS011;7268;50.792;0.252;2022-11-20T10:29:18;6.68;;;0.80;;
14369;SDS011;7268;50.792;0.252;2022-11-20T10:31:56;10.25;;;0.70;;
14369;SDS011;7268;50.792;0.252;2022-11-20T10:34:28;6.30;;;0.70;;
14369;SDS011;7268;50.792;0.252;2022-11-20T10:36:57;9.38;;;0.60;;
14369;SDS011;7268;50.792;0.252;2022-11-20T10:42:01;5.20;;;0.65;;
14369;SDS011;7268;50.792;0.252;2022-11-20T10:44:29;6.88;;;0.80;;
14369;SDS011;7268;50.792;0.252;2022-11-20T10:47:25;7.70;;;0.70;;
14369;SDS011;7268;50.792;0.252;2022-11-20T10:49:55;5.95;;;0.70;;
14369;SDS011;7268;50.792;0.252;2022-11-20T10:54:53;14.13;;;1.10;;
14369;SDS011;7268;50.792;0.252;2022-11-20T10:57:29;8.77;;;1.27;;
14369;SDS011;7268;50.792;0.252;2022-11-20T11:00:05;12.63;;;0.90;;
14369;SDS011;7268;50.792;0.252;2022-11-20T11:02:41;8.85;;;0.90;;
14369;SDS011;7268;50.792;0.252;2022-11-20T11:05:14;7.30;;;0.65;;
14369;SDS011;7268;50.792;0.252;2022-11-20T11:07:44;7.07;;;1.27;;
14369;SDS011;7268;50.792;0.252;2022-11-20T11:10:23;4.80;;;0.50;;
14369;SDS011;7268;50.792;0.252;2022-11-20T11:12:51;6.40;;;0.80;;
14369;SDS011;7268;50.792;0.252;2022-11-20T11:15:28;14.82;;;1.10;;
14369;SDS011;7268;50.792;0.252;2022-11-20T11:17:56;8.80;;;0.90;;
14369;SDS011;7268;50.792;0.252;2022-11-20T11:20:24;12.30;;;0.90;;
14369;SDS011;7268;50.792;0.252;2022-11-20T11:22:56;8.80;;;0.88;;
14369;SDS011;7268;50.792;0.252;2022-11-20T11:27:55;8.20;;;0.70;;
14369;SDS011;7268;50.792;0.252;2022-11-20T11:30:23;8.50;;;1.05;;
14369;SDS011;7268;50.792;0.252;2022-11-20T11:33:01;15.45;;;1.30;;
14369;SDS011;7268;50.792;0.252;2022-11-20T11:35:29;15.23;;;1.38;;
14369;SDS011;7268;50.792;0.252;2022-11-20T11:38:06;13.35;;;1.27;;
14369;SDS011;7268;50.792;0.252;2022-11-20T11:40:34;7.07;;;1.25;;
14369;SDS011;7268;50.792;0.252;2022-11-20T11:43:06;11.80;;;1.00;;
14369;SDS011;7268;50.792;0.252;2022-11-20T11:45:59;11.32;;;1.13;;
14369;SDS011;7268;50.792;0.252;2022-11-20T11:48:26;13.57;;;1.20;;
14369;SDS011;7268;50.792;0.252;2022-11-20T11:50:53;10.50;;;0.70;;
14369;SDS011;7268;50.792;0.252;2022-11-20T11:53:21;8.65;;;0.95;;
14369;SDS011;7268;50.792;0.252;2022-11-20T11:55:59;9.95;;;1.38;;
14369;SDS011;7268;50.792;0.252;2022-11-20T11:58:48;12.10;;;1.20;;
14369;SDS011;7268;50.792;0.252;2022-11-20T12:01:39;10.38;;;0.85;;
14369;SDS011;7268;50.792;0.252;2022-11-20T12:04:17;15.65;;;0.98;;
14369;SDS011;7268;50.792;0.252;2022-11-20T12:06:47;11.85;;;1.00;;
14369;SDS011;7268;50.792;0.252;2022-11-20T12:09:17;12.88;;;0.98;;
14369;SDS011;7268;50.792;0.252;2022-11-20T12:16:43;7.20;;;0.80;;
14369;SDS011;7268;50.792;0.252;2022-11-20T12:19:11;10.05;;;1.77;;
14369;SDS011;7268;50.792;0.252;2022-11-20T12:34:52;16.17;;;1.63;;
14369;SDS011;7268;50.792;0.252;2022-11-20T12:37:28;20.70;;;3.33;;
14369;SDS011;7268;50.792;0.252;2022-11-20T12:40:32;12.18;;;1.38;;
14369;SDS011;7268;50.792;0.252;2022-11-20T12:42:53;15.25;;;1.20;;
14369;SDS011;7268;50.792;0.252;2022-11-20T12:45:59;16.40;;;1.58;;
14369;SDS011;7268;50.792;0.252;2022-11-20T12:48:36;22.23;;;1.23;;
14369;SDS011;7268;50.792;0.252;2022-11-20T12:53:44;17.63;;;1.50;;
14369;SDS011;7268;50.792;0.252;2022-11-20T12:58:55;18.20;;;1.88;;
14369;SDS011;7268;50.792;0.252;2022-11-20T13:01:29;12.85;;;1.05;;
14369;SDS011;7268;50.792;0.252;2022-11-20T13:04:16;10.50;;;1.52;;
14369;SDS011;7268;50.792;0.252;2022-11-20T13:06:46;10.18;;;0.95;;
14369;SDS011;7268;50.792;0.252;2022-11-20T13:09:15;10.55;;;1.08;;
14369;SDS011;7268;50.792;0.252;2022-11-20T13:16:41;17.63;;;1.48;;
14369;SDS011;7268;50.792;0.252;2022-11-20T13:19:12;14.43;;;1.65;;
14369;SDS011;7268;50.792;0.252;2022-11-20T13:21:43;18.58;;;2.00;;
14369;SDS011;7268;50.792;0.252;2022-11-20T13:26:46;15.18;;;1.50;;
14369;SDS011;7268;50.792;0.252;2022-11-20T13:29:17;14.35;;;1.70;;
14369;SDS011;7268;50.792;0.252;2022-11-20T13:31:46;13.25;;;1.50;;
14369;SDS011;7268;50.792;0.252;2022-11-20T13:34:23;16.30;;;1.50;;
14369;SDS011;7268;50.792;0.252;2022-11-20T13:36:52;17.75;;;1.30;;
14369;SDS011;7268;50.792;0.252;2022-11-20T13:39:26;15.40;;;1.40;;
14369;SDS011;7268;50.792;0.252;2022-11-20T13:42:03;14.98;;;1.52;;
14369;SDS011;7268;50.792;0.252;2022-11-20T13:44:46;25.05;;;1.98;;
14369;SDS011;7268;50.792;0.252;2022-11-20T13:47:19;21.70;;;2.00;;
14369;SDS011;7268;50.792;0.252;2022-11-20T13:49:48;18.10;;;2.17;;
14369;SDS011;7268;50.792;0.252;2022-11-20T13:57:59;14.48;;;1.30;;
14369;SDS011;7268;50.792;0.252;2022-11-20T14:00:29;21.67;;;1.58;;
14369;SDS011;7268;50.792;0.252;2022-11-20T14:05:35;22.83;;;1.67;;
14369;SDS011;7268;50.792;0.252;2022-11-20T14:08:03;23.15;;;1.70;;
14369;SDS011;7268;50.792;0.252;2022-11-20T14:10:31;20.33;;;1.30;;
14369;SDS011;7268;50.792;0.252;2022-11-20T14:13:09;23.77;;;1.88;;
14369;SDS011;7268;50.792;0.252;2022-11-20T14:15:37;19.02;;;1.90;;
14369;SDS011;7268;50.792;0.252;2022-11-20T14:18:11;20.75;;;2.55;;
14369;SDS011;7268;50.792;0.252;2022-11-20T14:20:39;19.20;;;1.55;;
14369;SDS011;7268;50.792;0.252;2022-11-20T14:23:07;13.43;;;1.20;;
14369;SDS011;7268;50.792;0.252;2022-11-20T14:25:36;17.25;;;1.13;;
14369;SDS011;7268;50.792;0.252;2022-11-20T14:28:04;19.25;;;1.30;;
14369;SDS011;7268;50.792;0.252;2022-11-20T14:30:39;11.77;;;1.10;;
14369;SDS011;7268;50.792;0.252;2022-11-20T14:33:10;14.27;;;1.38;;
14369;SDS011;7268;50.792;0.252;2022-11-20T14:35:45;16.92;;;1.67;;
14369;SDS011;7268;50.792;0.252;2022-11-20T14:38:14;12.50;;;1.50;;
14369;SDS011;7268;50.792;0.252;2022-11-20T14:40:42;14.65;;;1.40;;
14369;SDS011;7268;50.792;0.252;2022-11-20T14:43:23;19.15;;;2.22;;
14369;SDS011;7268;50.792;0.252;2022-11-20T14:46:08;10.38;;;1.30;;
14369;SDS011;7268;50.792;0.252;2022-11-20T14:48:38;17.58;;;1.63;;
14369;SDS011;7268;50.792;0.252;2022-11-20T14:51:05;15.38;;;1.90;;
14369;SDS011;7268;50.792;0.252;2022-11-20T14:53:35;20.38;;;2.50;;
14369;SDS011;7268;50.792;0.252;2022-11-20T14:56:02;11.55;;;1.42;;
14369;SDS011;7268;50.792;0.252;2022-11-20T14:58:31;23.63;;;2.20;;
14369;SDS011;7268;50.792;0.252;2022-11-20T15:01:06;19.23;;;1.50;;
14369;SDS011;7268;50.792;0.252;2022-11-20T15:03:37;11.55;;;1.65;;
14369;SDS011;7268;50.792;0.252;2022-11-20T15:06:06;15.25;;;1.52;;
14369;SDS011;7268;50.792;0.252;2022-11-20T15:08:34;22.58;;;1.80;;
14369;SDS011;7268;50.792;0.252;2022-11-20T15:11:02;6.13;;;1.15;;
14369;SDS011;7268;50.792;0.252;2022-11-20T15:13:30;20.02;;;1.27;;
14369;SDS011;7268;50.792;0.252;2022-11-20T15:15:58;16.70;;;1.70;;
14369;SDS011;7268;50.792;0.252;2022-11-20T15:18:28;11.13;;;1.40;;
14369;SDS011;7268;50.792;0.252;2022-11-20T15:20:57;20.13;;;2.38;;
14369;SDS011;7268;50.792;0.252;2022-11-20T15:23:25;18.45;;;1.38;;
14369;SDS011;7268;50.792;0.252;2022-11-20T15:25:53;14.57;;;1.25;;
14369;SDS011;7268;50.792;0.252;2022-11-20T15:28:30;19.38;;;1.38;;
14369;SDS011;7268;50.792;0.252;2022-11-20T15:30:57;24.35;;;1.52;;
14369;SDS011;7268;50.792;0.252;2022-11-20T15:33:25;17.02;;;1.83;;
14369;SDS011;7268;50.792;0.252;2022-11-20T15:35:52;21.33;;;1.83;;
14369;SDS011;7268;50.792;0.252;2022-11-20T15:38:19;19.10;;;2.08;;
14369;SDS011;7268;50.792;0.252;2022-11-20T15:40:47;13.52;;;2.35;;
14369;SDS011;7268;50.792;0.252;2022-11-20T15:43:14;16.02;;;1.17;;
14369;SDS011;7268;50.792;0.252;2022-11-20T15:45:49;14.57;;;2.15;;
14369;SDS011;7268;50.792;0.252;2022-11-20T15:48:18;20.20;;;1.38;;
14369;SDS011;7268;50.792;0.252;2022-11-20T15:50:49;13.98;;;1.98;;
14369;SDS011;7268;50.792;0.252;2022-11-20T15:53:17;17.65;;;1.40;;
14369;SDS011;7268;50.792;0.252;2022-11-20T15:55:44;14.73;;;1.50;;
14369;SDS011;7268;50.792;0.252;2022-11-20T15:58:11;17.30;;;1.73;;
14369;SDS011;7268;50.792;0.252;2022-11-20T16:00:39;22.23;;;3.58;;
14369;SDS011;7268;50.792;0.252;2022-11-20T16:03:08;20.92;;;2.30;;
14369;SDS011;7268;50.792;0.252;2022-11-20T16:05:36;24.25;;;2.25;;
14369;SDS011;7268;50.792;0.252;2022-11-20T16:08:03;48.35;;;15.85;;
14369;SDS011;7268;50.792;0.252;2022-11-20T16:10:36;38.03;;;10.35;;
14369;SDS011;7268;50.792;0.252;2022-11-20T16:13:04;22.13;;;2.05;;
14369;SDS011;7268;50.792;0.252;2022-11-20T16:15:51;15.00;;;1.83;;
14369;SDS011;7268;50.792;0.252;2022-11-20T16:18:20;19.23;;;2.67;;
14369;SDS011;7268;50.792;0.252;2022-11-20T16:20:51;21.13;;;2.00;;
14369;SDS011;7268;50.792;0.252;2022-11-20T16:23:19;14.77;;;2.47;;
14369;SDS011;7268;50.792;0.252;2022-11-20T16:25:46;8.88;;;1.48;;
14369;SDS011;7268;50.792;0.252;2022-11-20T16:28:14;12.13;;;1.20;;
14369;SDS011;7268;50.792;0.252;2022-11-20T16:30:44;15.10;;;2.25;;
14369;SDS011;7268;50.792;0.252;2022-11-20T16:33:13;18.73;;;1.20;;
14369;SDS011;7268;50.792;0.252;2022-11-20T16:35:41;13.00;;;1.50;;